| time (UTC) | temp F | wind direction | speed knots | gust knots | rain 1hr in | rain 24hr in | rain mn in | humidity % | barometer mb |
| 20260507080349 | 52 | 128 | 1.7 | 2.6 | 0.00 | 0.00 | 0.00 | 75 | 1013.3 |
| 20260507075845 | 52 | 81 | 0.9 | 2.6 | 0.00 | 0.00 | 0.00 | 75 | 1013.4 |
| 20260507075341 | 52 | 143 | 2.6 | 3.5 | 0.00 | 0.00 | 0.00 | 75 | 1013.2 |
| 20260507074838 | 52 | 153 | 1.7 | 7.0 | 0.00 | 0.00 | 0.00 | 75 | 1013.2 |
| 20260507074334 | 52 | 88 | 0.9 | 2.6 | 0.00 | 0.00 | 0.00 | 74 | 1013.0 |
| 20260507073830 | 53 | 53 | 2.6 | 3.5 | 0.00 | 0.00 | 0.00 | 74 | 1013.2 |
| 20260507073326 | 52 | 124 | 2.6 | 3.5 | 0.00 | 0.00 | 0.00 | 74 | 1013.0 |
| 20260507072822 | 52 | 94 | 0.9 | 0.9 | 0.00 | 0.00 | 0.00 | 75 | 1013.2 |
| 20260507072318 | 51 | 111 | 0.9 | 3.5 | 0.00 | 0.00 | 0.00 | 76 | 1013.2 |
| 20260507071814 | 51 | 61 | 2.6 | 3.5 | 0.00 | 0.00 | 0.00 | 76 | 1013.2 |
| 20260507071310 | 51 | 65 | 1.7 | 2.6 | 0.00 | 0.00 | 0.00 | 75 | 1013.1 |
| 20260507070805 | 51 | 115 | 1.7 | 2.6 | 0.00 | 0.00 | 0.00 | 76 | 1012.9 |
| 20260507070301 | 51 | 7 | 1.7 | 2.6 | 0.00 | 0.00 | 0.00 | 77 | 1013.1 |
| 20260507065757 | 50 | 44 | 0.9 | 2.6 | 0.00 | 0.00 | 0.00 | 78 | 1013.0 |
| 20260507065253 | 50 | 20 | 1.7 | 3.5 | 0.00 | 0.00 | 0.00 | 78 | 1013.2 |
| 20260507064750 | 49 | 46 | 0.9 | 2.6 | 0.00 | 0.00 | 0.00 | 79 | 1013.2 |
| 20260507064246 | 50 | 73 | 1.7 | 1.7 | 0.00 | 0.00 | 0.00 | 80 | 1013.1 |
| 20260507063742 | 49 | 38 | 1.7 | 1.7 | 0.00 | 0.00 | 0.00 | 81 | 1013.2 |
| 20260507063238 | 48 | 16 | 1.7 | 1.7 | 0.00 | 0.00 | 0.00 | 82 | 1013.1 |
| 20260507062733 | 48 | 23 | 2.6 | 2.6 | 0.00 | 0.00 | 0.00 | 82 | 1012.8 |
| 20260507062229 | 48 | 43 | 0.9 | 1.7 | 0.00 | 0.00 | 0.00 | 82 | 1013.0 |
| 20260507061725 | 48 | 78 | 0.9 | 1.7 | 0.00 | 0.00 | 0.00 | 82 | 1012.9 |
| 20260507061221 | 48 | 15 | 1.7 | 3.5 | 0.00 | 0.00 | 0.00 | 82 | 1013.0 |
| 20260507060717 | 48 | 49 | 1.7 | 1.7 | 0.00 | 0.00 | 0.00 | 82 | 1012.9 |
| 20260507060213 | 48 | 54 | 0.9 | 1.7 | 0.00 | 0.00 | 0.00 | 82 | 1012.7 |
| 20260507055709 | 48 | 31 | 1.7 | 2.6 | 0.00 | 0.00 | 0.00 | 82 | 1012.9 |
| 20260507055206 | 48 | 298 | 0.9 | 0.9 | 0.00 | 0.00 | 0.00 | 82 | 1012.8 |
| 20260507054701 | 48 | 47 | 1.7 | 1.7 | 0.00 | 0.00 | 0.00 | 82 | 1012.7 |
| 20260507054157 | 48 | 10 | 0.9 | 1.7 | 0.00 | 0.00 | 0.00 | 82 | 1012.6 |
| 20260507053653 | 48 | 53 | 0.9 | 1.7 | 0.00 | 0.00 | 0.00 | 82 | 1012.7 |
| 20260507053149 | 48 | 34 | 0.0 | 1.7 | 0.00 | 0.00 | 0.00 | 82 | 1012.5 |
| 20260507052645 | 48 | 32 | 0.9 | 1.7 | 0.00 | 0.00 | 0.00 | 82 | 1012.7 |
| 20260507052141 | 48 | 52 | 0.9 | 1.7 | 0.00 | 0.00 | 0.00 | 82 | 1012.5 |
| 20260507051637 | 48 | 35 | 2.6 | 2.6 | 0.00 | 0.00 | 0.00 | 81 | 1012.5 |
| 20260507051133 | 48 | 28 | 1.7 | 1.7 | 0.00 | 0.00 | 0.00 | 81 | 1012.5 |
| 20260507050629 | 48 | 39 | 1.7 | 2.6 | 0.00 | 0.00 | 0.00 | 81 | 1012.4 |
| 20260507050125 | 48 | 57 | 1.7 | 1.7 | 0.00 | 0.00 | 0.00 | 81 | 1012.6 |
| 20260507045621 | 48 | 35 | 1.7 | 2.6 | 0.00 | 0.00 | 0.00 | 81 | 1012.6 |
| 20260507045117 | 48 | 34 | 0.9 | 1.7 | 0.00 | 0.00 | 0.00 | 81 | 1012.3 |
| 20260507044613 | 48 | 62 | 0.9 | 2.6 | 0.00 | 0.00 | 0.00 | 81 | 1012.1 |
| 20260507044109 | 48 | 40 | 0.9 | 1.7 | 0.00 | 0.00 | 0.00 | 80 | 1012.3 |
| 20260507043605 | 48 | 54 | 1.7 | 1.7 | 0.00 | 0.00 | 0.00 | 80 | 1012.5 |
| 20260507043101 | 48 | 45 | 0.0 | 1.7 | 0.00 | 0.00 | 0.00 | 80 | 1012.4 |
| 20260507042557 | 48 | 56 | 0.9 | 0.9 | 0.00 | 0.00 | 0.00 | 80 | 1012.4 |
| 20260507042053 | 48 | 48 | 1.7 | 1.7 | 0.00 | 0.00 | 0.00 | 80 | 1012.4 |
| 20260507041549 | 48 | 48 | 0.9 | 1.7 | 0.00 | 0.00 | 0.00 | 80 | 1012.2 |
| 20260507041045 | 48 | 68 | 3.5 | 3.5 | 0.00 | 0.00 | 0.00 | 80 | 1012.5 |
| 20260507040541 | 48 | 77 | 0.9 | 3.5 | 0.00 | 0.00 | 0.00 | 80 | 1012.3 |
| 20260507040037 | 48 | 32 | 3.5 | 5.2 | 0.00 | 0.00 | 0.00 | 81 | 1012.4 |
| 20260507035533 | 48 | 62 | 3.5 | 5.2 | 0.00 | 0.00 | 0.00 | 81 | 1012.4 |
| 20260507035030 | 48 | 60 | 1.7 | 1.7 | 0.00 | 0.00 | 0.00 | 81 | 1012.4 |
| 20260507034526 | 48 | 34 | 2.6 | 3.5 | 0.00 | 0.00 | 0.00 | 82 | 1012.4 |
| 20260507034022 | 48 | 50 | 1.7 | 2.6 | 0.00 | 0.00 | 0.00 | 82 | 1012.2 |
| 20260507033518 | 48 | 3 | 1.7 | 2.6 | 0.00 | 0.00 | 0.00 | 82 | 1012.3 |
| 20260507033014 | 48 | 36 | 0.0 | 1.7 | 0.00 | 0.00 | 0.00 | 83 | 1012.3 |
| 20260507032510 | 48 | 16 | 0.9 | 3.5 | 0.00 | 0.00 | 0.00 | 83 | 1012.1 |
| 20260507032006 | 48 | 27 | 1.7 | 3.5 | 0.00 | 0.00 | 0.00 | 83 | 1012.4 |
| 20260507031502 | 48 | 38 | 3.5 | 5.2 | 0.00 | 0.00 | 0.00 | 84 | 1012.3 |
| 20260507030958 | 48 | 19 | 1.7 | 1.7 | 0.00 | 0.00 | 0.00 | 84 | 1012.1 |
| 20260507030454 | 48 | 57 | 0.0 | 1.7 | 0.00 | 0.00 | 0.00 | 84 | 1012.2 |
| 20260507025950 | 48 | 60 | 3.5 | 3.5 | 0.00 | 0.00 | 0.00 | 84 | 1012.3 |
| 20260507025446 | 49 | 62 | 0.0 | 1.7 | 0.00 | 0.00 | 0.00 | 84 | 1012.4 |
| 20260507024942 | 49 | 12 | 2.6 | 2.6 | 0.00 | 0.00 | 0.00 | 84 | 1012.1 |
| 20260507024437 | 49 | 35 | 0.9 | 1.7 | 0.00 | 0.00 | 0.00 | 84 | 1012.2 |
| 20260507023933 | 48 | 58 | 0.9 | 1.7 | 0.00 | 0.00 | 0.00 | 84 | 1011.9 |
| 20260507023429 | 48 | 68 | 0.9 | 1.7 | 0.00 | 0.00 | 0.00 | 84 | 1012.4 |
| 20260507022925 | 48 | 350 | 1.7 | 1.7 | 0.00 | 0.00 | 0.00 | 84 | 1012.2 |
| 20260507022422 | 48 | 336 | 1.7 | 2.6 | 0.00 | 0.00 | 0.00 | 84 | 1012.2 |
| 20260507021917 | 48 | 295 | 0.0 | 1.7 | 0.00 | 0.00 | 0.00 | 84 | 1011.9 |
| 20260507021413 | 48 | 343 | 0.9 | 2.6 | 0.00 | 0.00 | 0.00 | 85 | 1012.1 |
| 20260507020909 | 48 | 310 | 0.9 | 0.9 | 0.00 | 0.00 | 0.00 | 85 | 1012.0 |
| 20260507020405 | 48 | 319 | 0.0 | 0.9 | 0.00 | 0.00 | 0.00 | 85 | 1011.8 |
| 20260507015901 | 48 | 46 | 0.9 | 0.9 | 0.00 | 0.00 | 0.00 | 84 | 1011.9 |
| 20260507015357 | 48 | 64 | 0.0 | 0.0 | 0.00 | 0.00 | 0.00 | 84 | 1011.9 |
| 20260507014853 | 48 | 38 | 0.9 | 0.9 | 0.00 | 0.00 | 0.00 | 84 | 1011.9 |
| 20260507014349 | 48 | 348 | 0.9 | 1.7 | 0.00 | 0.00 | 0.00 | 84 | 1012.0 |
| 20260507013845 | 48 | 260 | 0.0 | 0.9 | 0.00 | 0.00 | 0.00 | 84 | 1012.0 |
| 20260507013341 | 48 | 0 | 0.0 | 0.9 | 0.00 | 0.00 | 0.00 | 84 | 1011.9 |
| 20260507012837 | 48 | 172 | 0.0 | 0.9 | 0.00 | 0.00 | 0.00 | 84 | 1012.0 |
| 20260507012333 | 48 | 274 | 0.0 | 0.9 | 0.00 | 0.00 | 0.00 | 84 | 1011.9 |
| 20260507011829 | 48 | 283 | 0.9 | 1.7 | 0.00 | 0.00 | 0.00 | 84 | 1011.8 |
| 20260507011325 | 48 | 290 | 0.0 | 0.9 | 0.00 | 0.00 | 0.00 | 84 | 1012.0 |
| 20260507010821 | 48 | 295 | 0.9 | 1.7 | 0.00 | 0.00 | 0.00 | 84 | 1011.9 |
| 20260507010317 | 48 | 279 | 0.0 | 1.7 | 0.00 | 0.00 | 0.00 | 84 | 1011.9 |
| 20260507005813 | 48 | 247 | 0.0 | 0.9 | 0.00 | 0.00 | 0.00 | 84 | 1012.0 |
| 20260507005309 | 48 | 55 | 0.0 | 0.9 | 0.00 | 0.00 | 0.00 | 84 | 1012.0 |
| 20260507004805 | 49 | 17 | 1.7 | 2.6 | 0.00 | 0.00 | 0.00 | 83 | 1011.9 |
| 20260507004301 | 49 | 268 | 0.0 | 0.9 | 0.00 | 0.00 | 0.00 | 83 | 1012.0 |
| 20260507003757 | 48 | 335 | 0.9 | 1.7 | 0.00 | 0.00 | 0.00 | 83 | 1012.2 |
| 20260507003253 | 48 | 303 | 0.9 | 1.7 | 0.00 | 0.00 | 0.00 | 83 | 1012.1 |
| 20260507002749 | 48 | 318 | 0.0 | 1.7 | 0.00 | 0.00 | 0.00 | 83 | 1011.9 |
| 20260507002245 | 49 | 356 | 0.0 | 0.9 | 0.00 | 0.00 | 0.00 | 83 | 1012.0 |
| 20260507001741 | 49 | 40 | 0.0 | 1.7 | 0.00 | 0.00 | 0.00 | 83 | 1012.1 |
| 20260507001237 | 49 | 282 | 0.9 | 1.7 | 0.00 | 0.00 | 0.00 | 83 | 1011.9 |
| 20260507000733 | 48 | 276 | 0.9 | 1.7 | 0.00 | 0.00 | 0.00 | 83 | 1012.0 |
| 20260507000229 | 49 | 277 | 0.9 | 0.9 | 0.00 | 0.00 | 0.00 | 83 | 1012.1 |
| 20260506235725 | 49 | 86 | 0.0 | 1.7 | 0.00 | 0.00 | 0.00 | 83 | 1012.0 |
| 20260506235221 | 49 | 292 | 0.0 | 0.9 | 0.00 | 0.00 | 0.00 | 83 | 1011.8 |
| 20260506234718 | 49 | 342 | 0.0 | 0.9 | 0.00 | 0.00 | 0.00 | 83 | 1011.9 |
| 20260506234214 | 49 | 326 | 0.0 | 1.7 | 0.00 | 0.00 | 0.00 | 82 | 1012.0 |
| 20260506233710 | 49 | 345 | 0.0 | 0.9 | 0.00 | 0.00 | 0.00 | 82 | 1011.8 |
| 20260506233206 | 49 | 274 | 0.0 | 0.9 | 0.00 | 0.00 | 0.00 | 82 | 1012.0 |
| 20260506232702 | 49 | 293 | 0.0 | 0.9 | 0.00 | 0.00 | 0.00 | 82 | 1011.8 |
| 20260506232158 | 49 | 277 | 0.0 | 0.9 | 0.00 | 0.00 | 0.00 | 82 | 1011.9 |
| 20260506231654 | 49 | 271 | 0.0 | 0.9 | 0.00 | 0.00 | 0.00 | 82 | 1011.7 |
| 20260506231150 | 49 | 318 | 0.9 | 1.7 | 0.00 | 0.00 | 0.00 | 82 | 1011.8 |
| 20260506230646 | 49 | 5 | 1.7 | 1.7 | 0.00 | 0.00 | 0.00 | 82 | 1011.8 |
| 20260506230142 | 49 | 338 | 0.9 | 1.7 | 0.00 | 0.00 | 0.00 | 81 | 1011.9 |
| 20260506225638 | 49 | 31 | 1.7 | 1.7 | 0.00 | 0.00 | 0.00 | 81 | 1011.9 |
| 20260506225133 | 49 | 355 | 0.0 | 1.7 | 0.00 | 0.00 | 0.00 | 81 | 1012.0 |
| 20260506224629 | 49 | 270 | 0.0 | 0.9 | 0.00 | 0.00 | 0.00 | 80 | 1012.0 |
| 20260506224125 | 49 | 287 | 0.0 | 0.0 | 0.00 | 0.00 | 0.00 | 80 | 1011.6 |
| 20260506223621 | 49 | 312 | 0.9 | 0.9 | 0.00 | 0.00 | 0.00 | 80 | 1011.7 |
| 20260506223117 | 49 | 44 | 1.7 | 3.5 | 0.00 | 0.00 | 0.00 | 80 | 1011.7 |
| 20260506222613 | 49 | 303 | 0.9 | 5.2 | 0.00 | 0.00 | 0.00 | 80 | 1011.7 |
| 20260506222109 | 49 | 266 | 0.0 | 1.7 | 0.00 | 0.00 | 0.00 | 80 | 1011.8 |
| 20260506221605 | 49 | 264 | 1.7 | 2.6 | 0.00 | 0.00 | 0.00 | 80 | 1011.7 |
| 20260506221101 | 49 | 290 | 1.7 | 3.5 | 0.00 | 0.00 | 0.00 | 79 | 1011.6 |
| 20260506220557 | 49 | 293 | 0.9 | 2.6 | 0.00 | 0.00 | 0.00 | 79 | 1011.9 |
| 20260506220053 | 49 | 35 | 0.0 | 1.7 | 0.00 | 0.00 | 0.00 | 79 | 1011.8 |
| 20260506215549 | 49 | 309 | 0.9 | 2.6 | 0.00 | 0.00 | 0.00 | 79 | 1011.5 |
| 20260506215045 | 50 | 306 | 2.6 | 5.2 | 0.00 | 0.00 | 0.00 | 78 | 1011.6 |
| 20260506214542 | 50 | 21 | 3.5 | 5.2 | 0.00 | 0.00 | 0.00 | 78 | 1011.6 |
| 20260506214037 | 50 | 210 | 0.9 | 1.7 | 0.00 | 0.00 | 0.00 | 77 | 1011.6 |
| 20260506213533 | 50 | 339 | 1.7 | 2.6 | 0.00 | 0.00 | 0.00 | 77 | 1011.5 |
| 20260506213029 | 50 | 317 | 0.9 | 1.7 | 0.00 | 0.00 | 0.00 | 76 | 1011.6 |
| 20260506212525 | 50 | 280 | 1.7 | 2.6 | 0.00 | 0.00 | 0.00 | 76 | 1011.6 |
| 20260506212021 | 50 | 339 | 0.9 | 3.5 | 0.00 | 0.00 | 0.00 | 76 | 1011.6 |
| 20260506211517 | 50 | 269 | 0.0 | 0.9 | 0.00 | 0.00 | 0.00 | 75 | 1011.6 |
| 20260506211013 | 50 | 318 | 0.9 | 2.6 | 0.00 | 0.00 | 0.00 | 74 | 1011.5 |
| 20260506210509 | 51 | 278 | 0.9 | 2.6 | 0.00 | 0.00 | 0.00 | 74 | 1011.6 |
| 20260506210005 | 51 | 43 | 0.9 | 2.6 | 0.00 | 0.00 | 0.00 | 74 | 1011.5 |
| 20260506205501 | 51 | 349 | 1.7 | 2.6 | 0.00 | 0.00 | 0.00 | 73 | 1011.4 |
| 20260506204958 | 51 | 299 | 0.9 | 5.2 | 0.00 | 0.00 | 0.00 | 73 | 1011.5 |
| 20260506204454 | 51 | 351 | 0.9 | 3.5 | 0.00 | 0.00 | 0.00 | 72 | 1011.3 |
| 20260506203950 | 51 | 245 | 1.7 | 6.1 | 0.00 | 0.00 | 0.00 | 72 | 1011.4 |
| 20260506203446 | 51 | 252 | 0.9 | 6.1 | 0.00 | 0.00 | 0.00 | 71 | 1011.3 |
| 20260506202942 | 51 | 275 | 1.7 | 2.6 | 0.00 | 0.00 | 0.00 | 70 | 1011.4 |
| 20260506202438 | 51 | 249 | 1.7 | 6.1 | 0.00 | 0.00 | 0.00 | 69 | 1011.5 |
| 20260506201934 | 52 | 300 | 2.6 | 6.1 | 0.00 | 0.00 | 0.00 | 68 | 1011.3 |
| 20260506201430 | 52 | 196 | 1.7 | 5.2 | 0.00 | 0.00 | 0.00 | 68 | 1011.5 |
| 20260506200926 | 52 | 309 | 0.9 | 1.7 | 0.00 | 0.00 | 0.00 | 67 | 1011.2 |
| 20260506200422 | 52 | 298 | 0.9 | 3.5 | 0.00 | 0.00 | 0.00 | 67 | 1011.3 |
| 20260506195918 | 52 | 257 | 0.9 | 1.7 | 0.00 | 0.00 | 0.00 | 67 | 1011.1 |
| 20260506195414 | 52 | 52 | 1.7 | 6.1 | 0.00 | 0.00 | 0.00 | 67 | 1010.8 |
| 20260506194910 | 52 | 305 | 1.7 | 2.6 | 0.00 | 0.00 | 0.00 | 68 | 1010.9 |
| 20260506194406 | 52 | 21 | 0.0 | 2.6 | 0.00 | 0.00 | 0.00 | 68 | 1010.8 |
| 20260506193902 | 53 | 270 | 3.5 | 5.2 | 0.00 | 0.00 | 0.00 | 67 | 1010.8 |
| 20260506193358 | 53 | 246 | 0.9 | 3.5 | 0.00 | 0.00 | 0.00 | 66 | 1010.6 |
| 20260506192853 | 53 | 317 | 1.7 | 1.7 | 0.00 | 0.00 | 0.00 | 65 | 1010.6 |
| 20260506192349 | 53 | 289 | 0.0 | 2.6 | 0.00 | 0.00 | 0.00 | 64 | 1010.7 |
| 20260506191845 | 53 | 51 | 1.7 | 7.0 | 0.00 | 0.00 | 0.00 | 64 | 1010.7 |
| 20260506191341 | 53 | 26 | 4.3 | 7.8 | 0.00 | 0.00 | 0.00 | 63 | 1010.6 |
| 20260506190837 | 53 | 13 | 0.9 | 5.2 | 0.00 | 0.00 | 0.00 | 63 | 1010.8 |
| 20260506190333 | 53 | 59 | 2.6 | 6.1 | 0.00 | 0.00 | 0.00 | 63 | 1010.6 |
| 20260506185829 | 53 | 173 | 0.0 | 0.9 | 0.00 | 0.00 | 0.00 | 63 | 1010.5 |
| 20260506185325 | 53 | 354 | 1.7 | 6.1 | 0.00 | 0.00 | 0.00 | 62 | 1010.4 |
| 20260506184822 | 54 | 249 | 0.0 | 0.9 | 0.00 | 0.00 | 0.00 | 62 | 1010.4 |
| 20260506184318 | 54 | 313 | 0.9 | 5.2 | 0.00 | 0.00 | 0.00 | 62 | 1010.5 |
| 20260506183813 | 54 | 260 | 0.9 | 2.6 | 0.00 | 0.00 | 0.00 | 62 | 1010.2 |
| 20260506183309 | 54 | 338 | 2.6 | 6.1 | 0.00 | 0.00 | 0.00 | 62 | 1010.2 |
| 20260506182805 | 54 | 356 | 1.7 | 3.5 | 0.00 | 0.00 | 0.00 | 61 | 1010.3 |
| 20260506182301 | 54 | 14 | 2.6 | 6.1 | 0.00 | 0.00 | 0.00 | 60 | 1010.3 |
| 20260506181757 | 54 | 0 | 3.5 | 5.2 | 0.00 | 0.00 | 0.00 | 61 | 1010.1 |
| 20260506181253 | 54 | 32 | 1.7 | 3.5 | 0.00 | 0.00 | 0.00 | 61 | 1010.0 |
| 20260506180749 | 54 | 7 | 3.5 | 8.7 | 0.00 | 0.00 | 0.00 | 62 | 1010.1 |
| 20260506180245 | 54 | 60 | 0.9 | 7.0 | 0.00 | 0.00 | 0.00 | 62 | 1010.1 |
| 20260506175741 | 54 | 349 | 1.7 | 6.1 | 0.00 | 0.00 | 0.00 | 62 | 1009.8 |
| 20260506175237 | 54 | 15 | 7.8 | 8.7 | 0.00 | 0.00 | 0.00 | 61 | 1009.8 |
| 20260506174734 | 54 | 2 | 2.6 | 6.1 | 0.00 | 0.00 | 0.00 | 61 | 1009.7 |
| 20260506174230 | 54 | 38 | 4.3 | 6.1 | 0.00 | 0.00 | 0.00 | 60 | 1009.8 |
| 20260506173726 | 54 | 13 | 5.2 | 7.0 | 0.00 | 0.00 | 0.00 | 60 | 1009.7 |
| 20260506173222 | 54 | 41 | 2.6 | 5.2 | 0.00 | 0.00 | 0.00 | 60 | 1009.7 |
| 20260506172718 | 54 | 78 | 1.7 | 3.5 | 0.00 | 0.00 | 0.00 | 59 | 1009.5 |
| 20260506172214 | 55 | 34 | 4.3 | 7.0 | 0.00 | 0.00 | 0.00 | 58 | 1009.6 |
| 20260506171710 | 55 | 21 | 1.7 | 2.6 | 0.00 | 0.00 | 0.00 | 56 | 1009.6 |
| 20260506171206 | 55 | 38 | 0.9 | 1.7 | 0.00 | 0.00 | 0.00 | 56 | 1009.9 |
| 20260506170702 | 55 | 268 | 0.9 | 1.7 | 0.00 | 0.00 | 0.00 | 56 | 1009.6 |
| 20260506170158 | 55 | 265 | 1.7 | 6.1 | 0.00 | 0.00 | 0.00 | 56 | 1009.6 |
| 20260506165654 | 55 | 359 | 0.9 | 2.6 | 0.00 | 0.00 | 0.00 | 56 | 1009.6 |
| 20260506165150 | 55 | 351 | 1.7 | 3.5 | 0.00 | 0.00 | 0.00 | 56 | 1009.5 |
| 20260506164646 | 55 | 81 | 1.7 | 5.2 | 0.00 | 0.00 | 0.00 | 56 | 1009.6 |
| 20260506164142 | 55 | 318 | 2.6 | 7.0 | 0.00 | 0.00 | 0.00 | 56 | 1009.5 |
| 20260506163638 | 55 | 277 | 3.5 | 5.2 | 0.00 | 0.00 | 0.00 | 56 | 1009.5 |
| 20260506163134 | 55 | 267 | 0.9 | 2.6 | 0.00 | 0.00 | 0.00 | 56 | 1009.6 |
| 20260506162630 | 55 | 302 | 1.7 | 7.0 | 0.00 | 0.00 | 0.00 | 57 | 1009.6 |
| 20260506162126 | 55 | 337 | 1.7 | 3.5 | 0.00 | 0.00 | 0.00 | 57 | 1009.7 |
| 20260506161622 | 56 | 12 | 2.6 | 6.1 | 0.00 | 0.00 | 0.00 | 56 | 1009.6 |
| 20260506161118 | 56 | 324 | 0.9 | 6.1 | 0.00 | 0.00 | 0.00 | 57 | 1009.4 |
| 20260506160614 | 55 | 348 | 3.5 | 6.1 | 0.00 | 0.00 | 0.00 | 57 | 1009.6 |
| 20260506160110 | 55 | 323 | 1.7 | 5.2 | 0.00 | 0.00 | 0.00 | 57 | 1010.0 |
| 20260506155606 | 56 | 328 | 2.6 | 2.6 | 0.00 | 0.00 | 0.00 | 56 | 1009.7 |
| 20260506155101 | 56 | 315 | 1.7 | 5.2 | 0.00 | 0.00 | 0.00 | 56 | 1009.6 |
| 20260506154557 | 55 | 285 | 0.9 | 2.6 | 0.00 | 0.00 | 0.00 | 56 | 1009.7 |
| 20260506154053 | 56 | 2 | 5.2 | 7.8 | 0.00 | 0.00 | 0.00 | 56 | 1009.7 |
| 20260506153549 | 56 | 334 | 3.5 | 3.5 | 0.00 | 0.00 | 0.00 | 56 | 1009.6 |
| 20260506153045 | 56 | 304 | 0.0 | 1.7 | 0.00 | 0.00 | 0.00 | 57 | 1009.7 |
| 20260506152541 | 56 | 105 | 1.7 | 3.5 | 0.00 | 0.00 | 0.00 | 58 | 1009.8 |
| 20260506152037 | 56 | 46 | 3.5 | 6.1 | 0.00 | 0.00 | 0.00 | 57 | 1009.7 |
| 20260506151533 | 56 | 234 | 0.0 | 2.6 | 0.00 | 0.00 | 0.00 | 57 | 1009.7 |
| 20260506151029 | 56 | 71 | 1.7 | 7.0 | 0.00 | 0.00 | 0.00 | 58 | 1009.9 |
| 20260506150525 | 56 | 239 | 0.9 | 3.5 | 0.00 | 0.00 | 0.00 | 58 | 1009.9 |
| 20260506150021 | 56 | 281 | 3.5 | 5.2 | 0.00 | 0.00 | 0.00 | 58 | 1009.8 |
| 20260506145517 | 56 | 321 | 1.7 | 3.5 | 0.00 | 0.00 | 0.00 | 59 | 1009.7 |
| 20260506145014 | 56 | 257 | 0.0 | 1.7 | 0.00 | 0.00 | 0.00 | 60 | 1009.6 |
| 20260506144510 | 56 | 319 | 0.9 | 3.5 | 0.00 | 0.00 | 0.00 | 60 | 1009.8 |
| 20260506144006 | 55 | 357 | 0.9 | 2.6 | 0.00 | 0.00 | 0.00 | 61 | 1009.9 |
| 20260506143502 | 55 | 255 | 1.7 | 5.2 | 0.00 | 0.00 | 0.00 | 61 | 1009.6 |
| 20260506142958 | 56 | 273 | 1.7 | 3.5 | 0.00 | 0.00 | 0.00 | 61 | 1009.5 |
| 20260506142454 | 55 | 294 | 1.7 | 2.6 | 0.00 | 0.00 | 0.00 | 62 | 1009.8 |
| 20260506141950 | 54 | 19 | 1.7 | 7.8 | 0.00 | 0.00 | 0.00 | 63 | 1009.8 |
| 20260506141446 | 55 | 31 | 3.5 | 6.1 | 0.00 | 0.00 | 0.00 | 63 | 1009.8 |
| 20260506140941 | 54 | 292 | 0.9 | 1.7 | 0.00 | 0.00 | 0.00 | 64 | 1009.9 |
| 20260506140437 | 54 | 101 | 0.0 | 2.6 | 0.00 | 0.00 | 0.00 | 66 | 1009.8 |
| 20260506135933 | 54 | 349 | 3.5 | 6.1 | 0.00 | 0.00 | 0.00 | 66 | 1010.0 |
| 20260506135429 | 53 | 272 | 0.9 | 2.6 | 0.00 | 0.00 | 0.00 | 67 | 1009.8 |
| 20260506134926 | 54 | 337 | 1.7 | 2.6 | 0.00 | 0.00 | 0.00 | 67 | 1010.0 |
| 20260506134421 | 54 | 320 | 1.7 | 3.5 | 0.00 | 0.00 | 0.00 | 68 | 1009.7 |
| 20260506133918 | 53 | 344 | 2.6 | 5.2 | 0.00 | 0.00 | 0.00 | 66 | 1009.9 |
| 20260506133413 | 53 | 0 | 2.6 | 7.0 | 0.00 | 0.00 | 0.00 | 66 | 1010.1 |
| 20260506132909 | 54 | 312 | 2.6 | 6.1 | 0.00 | 0.00 | 0.00 | 65 | 1010.0 |
| 20260506132405 | 54 | 142 | 1.7 | 7.0 | 0.00 | 0.00 | 0.00 | 65 | 1010.0 |
| 20260506131901 | 54 | 2 | 5.2 | 7.8 | 0.00 | 0.00 | 0.00 | 64 | 1009.7 |
| 20260506131357 | 55 | 28 | 0.9 | 6.1 | 0.00 | 0.00 | 0.00 | 63 | 1010.1 |
| 20260506130853 | 55 | 353 | 2.6 | 3.5 | 0.00 | 0.00 | 0.00 | 62 | 1010.0 |
| 20260506130349 | 55 | 322 | 1.7 | 3.5 | 0.00 | 0.00 | 0.00 | 63 | 1009.9 |
| 20260506125845 | 55 | 331 | 1.7 | 6.1 | 0.00 | 0.00 | 0.00 | 62 | 1009.8 |
| 20260506125341 | 54 | 261 | 1.7 | 2.6 | 0.00 | 0.00 | 0.00 | 64 | 1010.0 |
| 20260506124837 | 54 | 46 | 3.5 | 7.0 | 0.00 | 0.00 | 0.00 | 63 | 1010.0 |
| 20260506124333 | 54 | 326 | 6.1 | 8.7 | 0.00 | 0.00 | 0.00 | 64 | 1009.9 |
| 20260506123829 | 54 | 278 | 2.6 | 7.8 | 0.00 | 0.00 | 0.00 | 63 | 1009.8 |
| 20260506123325 | 55 | 242 | 4.3 | 8.7 | 0.00 | 0.00 | 0.00 | 62 | 1009.8 |
| 20260506122821 | 55 | 62 | 2.6 | 9.6 | 0.00 | 0.00 | 0.00 | 61 | 1009.8 |
| 20260506122317 | 57 | 238 | 4.3 | 12.2 | 0.00 | 0.00 | 0.00 | 59 | 1009.9 |
| 20260506121813 | 58 | 340 | 3.5 | 6.1 | 0.00 | 0.00 | 0.00 | 55 | 1009.7 |
| 20260506121309 | 56 | 307 | 1.7 | 6.1 | 0.00 | 0.00 | 0.00 | 57 | 1009.6 |
| 20260506120805 | 56 | 23 | 1.7 | 6.1 | 0.00 | 0.00 | 0.00 | 59 | 1009.8 |
| 20260506120301 | 56 | 284 | 1.7 | 3.5 | 0.00 | 0.00 | 0.00 | 58 | 1009.8 |
| 20260506115757 | 55 | 306 | 3.5 | 6.1 | 0.00 | 0.00 | 0.00 | 61 | 1009.9 |
| 20260506115253 | 55 | 324 | 2.6 | 5.2 | 0.00 | 0.00 | 0.00 | 62 | 1010.0 |
| 20260506114749 | 56 | 265 | 1.7 | 5.2 | 0.00 | 0.00 | 0.00 | 60 | 1009.8 |
| 20260506114245 | 56 | 301 | 1.7 | 5.2 | 0.00 | 0.00 | 0.00 | 60 | 1009.8 |
| 20260506113741 | 54 | 29 | 5.2 | 12.2 | 0.00 | 0.00 | 0.00 | 61 | 1009.8 |
| 20260506113237 | 54 | 354 | 5.2 | 7.0 | 0.00 | 0.00 | 0.00 | 62 | 1009.9 |
| 20260506112733 | 54 | 355 | 0.9 | 9.6 | 0.00 | 0.00 | 0.00 | 63 | 1009.9 |
| 20260506112229 | 54 | 344 | 7.0 | 11.3 | 0.00 | 0.00 | 0.00 | 61 | 1009.9 |
| 20260506111725 | 55 | 323 | 1.7 | 9.6 | 0.00 | 0.00 | 0.00 | 62 | 1009.9 |
| 20260506111221 | 55 | 23 | 0.9 | 6.1 | 0.00 | 0.00 | 0.00 | 61 | 1009.9 |
| 20260506110717 | 55 | 15 | 2.6 | 6.1 | 0.00 | 0.00 | 0.00 | 60 | 1009.6 |
| 20260506110213 | 54 | 268 | 1.7 | 7.8 | 0.00 | 0.00 | 0.00 | 62 | 1009.8 |
| 20260506105709 | 54 | 326 | 0.9 | 2.6 | 0.00 | 0.00 | 0.00 | 61 | 1009.8 |
| 20260506105205 | 55 | 13 | 1.7 | 3.5 | 0.00 | 0.00 | 0.00 | 61 | 1009.7 |
| 20260506104701 | 54 | 325 | 1.7 | 5.2 | 0.00 | 0.00 | 0.00 | 60 | 1010.2 |
| 20260506104157 | 56 | 57 | 5.2 | 7.8 | 0.00 | 0.00 | 0.00 | 57 | 1009.9 |
| 20260506103653 | 55 | 259 | 3.5 | 3.5 | 0.00 | 0.00 | 0.00 | 58 | 1009.9 |
| 20260506103149 | 54 | 11 | 3.5 | 11.3 | 0.00 | 0.00 | 0.00 | 59 | 1009.8 |
| 20260506102645 | 54 | 29 | 1.7 | 7.0 | 0.00 | 0.00 | 0.00 | 59 | 1009.8 |
| 20260506102141 | 54 | 281 | 3.5 | 7.0 | 0.00 | 0.00 | 0.00 | 58 | 1010.1 |
| 20260506101637 | 53 | 316 | 2.6 | 8.7 | 0.00 | 0.00 | 0.00 | 61 | 1009.9 |
| 20260506101133 | 53 | 70 | 2.6 | 6.1 | 0.00 | 0.00 | 0.00 | 60 | 1009.9 |
| 20260506100629 | 53 | 258 | 1.7 | 5.2 | 0.00 | 0.00 | 0.00 | 61 | 1009.8 |
| 20260506100125 | 53 | 25 | 5.2 | 11.3 | 0.00 | 0.00 | 0.00 | 62 | 1010.0 |
| 20260506095621 | 53 | 169 | 0.0 | 5.2 | 0.00 | 0.00 | 0.00 | 61 | 1010.0 |
| 20260506095118 | 53 | 251 | 0.9 | 7.8 | 0.00 | 0.00 | 0.00 | 60 | 1010.0 |
| 20260506094614 | 53 | 273 | 1.7 | 7.8 | 0.00 | 0.00 | 0.00 | 59 | 1010.1 |
| 20260506094110 | 54 | 309 | 1.7 | 2.6 | 0.00 | 0.00 | 0.00 | 60 | 1010.1 |
| 20260506093606 | 54 | 233 | 1.7 | 7.0 | 0.00 | 0.00 | 0.00 | 60 | 1010.1 |
| 20260506093102 | 53 | 47 | 7.0 | 9.6 | 0.00 | 0.00 | 0.00 | 60 | 1010.0 |
| 20260506092558 | 53 | 9 | 2.6 | 3.5 | 0.00 | 0.00 | 0.00 | 60 | 1010.1 |
| 20260506092054 | 53 | 157 | 1.7 | 5.2 | 0.00 | 0.00 | 0.00 | 59 | 1009.8 |
| 20260506091550 | 53 | 175 | 1.7 | 7.8 | 0.00 | 0.00 | 0.00 | 61 | 1009.8 |
| 20260506091046 | 53 | 338 | 5.2 | 7.0 | 0.00 | 0.00 | 0.00 | 60 | 1009.8 |
| 20260506090542 | 53 | 137 | 4.3 | 7.8 | 0.00 | 0.00 | 0.00 | 62 | 1009.9 |
| 20260506090038 | 53 | 21 | 4.3 | 6.1 | 0.00 | 0.00 | 0.00 | 62 | 1009.8 |
| 20260506085534 | 53 | 295 | 0.9 | 8.7 | 0.00 | 0.00 | 0.00 | 63 | 1009.9 |
| 20260506085030 | 52 | 64 | 0.9 | 5.2 | 0.00 | 0.00 | 0.00 | 65 | 1009.6 |
| 20260506084526 | 52 | 314 | 5.2 | 8.7 | 0.00 | 0.00 | 0.00 | 64 | 1009.7 |
| 20260506084022 | 52 | 19 | 7.0 | 7.8 | 0.00 | 0.00 | 0.00 | 65 | 1010.0 |
| 20260506083518 | 51 | 20 | 1.7 | 7.0 | 0.00 | 0.00 | 0.00 | 66 | 1009.9 |
| 20260506083014 | 51 | 67 | 4.3 | 7.0 | 0.00 | 0.00 | 0.00 | 67 | 1009.6 |
| 20260506082510 | 51 | 32 | 5.2 | 7.8 | 0.00 | 0.00 | 0.00 | 68 | 1009.7 |
| 20260506082006 | 51 | 20 | 3.5 | 5.2 | 0.00 | 0.00 | 0.00 | 67 | 1009.8 |
| 20260506081502 | 51 | 288 | 1.7 | 8.7 | 0.00 | 0.00 | 0.00 | 67 | 1009.7 |
| 20260506080958 | 52 | 258 | 0.9 | 3.5 | 0.00 | 0.00 | 0.00 | 68 | 1009.7 |